LOS ANGELES INTL

KLAX (LAX)
Los Angeles, California
Towered

Vatsim Metar:
KLAX 011653Z 10004KT 10SM OVC024 20/14 A2990 RMK AO2 SLP122 T02000139

LOS ANGELES INTL ATC

LAX_55_CTR - 135.550 - Tom Solon
Boryspil Tower ATIS at 126.7 GND-3000 vACC Ukraine
LAX_1_TWR - 120.950 - Nick Saffari
Los Angeles Tower

Traffic

Inbound:
Ident
Type
Name
ETA
Phase
AAL1024
A320
Jeff Callender KSAT
18:10 Z
Descent
ASA201
B738
Doug Larkins KPDX
18:12 Z
Descent
NBT611
B789
Kevin Neumann LOWW
18:22 Z
Cruse
HAL10
A321
Ayaan Hossein KDCA
18:53 Z
Cruse
AAL2073
A320
Antonio Restrepo KMIA
19:15 Z
Climb
WJA1101
B737
Julian Murillo CYND
19:38 Z
Cruse
AAL78
A21N
Tomasz EPJG
19:29 Z
Cruse
GTI3391
B748
1507339 KDEN
19:36 Z
Cruse
UAL632
B753
Zachary Pineiro KTOL
21:19 Z
Cruse
DAL2927
B764
Kam Hodges KDCA
Taxiing Out
SWA7436
B737
Bob Vogan KPIT
Boarding
LA4196
B77W
Gregory Spivey KORD
21:47 Z
Cruse

Outbound:
Ident
Type
Name
Destination
Phase
AAL1763
B737
Allan Santos PHOG
KLAS
Boarding
UAL5512
B738
Daniel Johnson EGCC
KPHX
Boarding
AAL938
A320
Anesh Sagram CYYZ
KLAS
Climb
AAL526
A20N
Keith murray KLAX
KDEN
Climb
N405HT
C25C
Ingo Harders CYVR
KFAT
Climb
AAL230
B738
Jayden Ramdas KATL
KLAS
Climb
DAL143
A359
dava reznik UKBB
RJTT
Climb